Pagrindinis puslapis
METAR-TAF:

METAR-TAF

Oro uostai :

Guilin, Kinija

platuma: 25-20N, ilguma: 110-18E, Aukštis: 166 m

Dabartinis oras

Ataskaita buvo paskelbta 1 valandą ir 3 minutes, ne 04:00 UTC
Vėjas 16 kt iš Šiaurės Rytų
Temperatūra 31°C
Drėgmė 52%
Slėgis 1016 hPa
Matomumas 10 km arba daugiau
Mažai debesys ne aukštis 3000 ft

METAR: ZGKL 180400Z 04008MPS 9999 FEW030 31/20 Q1016 NOSIG

Laikas: 13:03 (05:03 UTC)

Prognozė

Ataskaita buvo paskelbta 9 valandos ir 50 minutes, ne 19:13 UTC
Prognozė galioja nuo 18 metu 00 UTC su 18 metu 24 UTC
Vėjas 8 kt iš Šiaurės Rytų
Matomumas: 8000 m
Išsisklaidę debesys ne aukštis 5000 ft
Laikinai
nuo 18 metu 06 UTC su 18 metu 12 UTC
Mažai debesys ne aukštis 3300 ft, Liūtiniai kamuoliniai debesys.
Su prošvaistėmis ne aukštis 4000 ft

TAF: ZGKL 171913Z 1800/1824 05004MPS 8000 SCT050 TX34/1807Z TN23/1822Z TEMPO 1806/1812 FEW033CB BKN040

Orai ataskaitas ir orų prognozės (METAR, TAF).

turimą stotys yra geltonos ir raudonos taškus žemėlapyje.

Perkelti pele per norėdami pamatyti stoties vardą.

Tada spustelėkite, norėdami matyti oro stebėjimo ir prognozės.

Norėdami pakeisti žemėlapį: spustelėkite ant žalios mygtukų su juodo kryžiaus žemyn,; žalią mygtuką su brūkšneliu, jei norite nutolinti; arba žalių rodyklių gretimoms žemėlapius.


METAR-TAF: